sensor_id;sensor_type;location;lat;lon;timestamp;P1;durP1;ratioP1;P2;durP2;ratioP2
12593;SDS011;6362;50.208;9.182;2024-01-11T00:02:16;49.78;;;21.48;;
12593;SDS011;6362;50.208;9.182;2024-01-11T00:04:43;41.63;;;19.50;;
12593;SDS011;6362;50.208;9.182;2024-01-11T00:07:09;46.85;;;19.30;;
12593;SDS011;6362;50.208;9.182;2024-01-11T00:09:38;48.50;;;19.50;;
12593;SDS011;6362;50.208;9.182;2024-01-11T00:12:05;46.97;;;20.63;;
12593;SDS011;6362;50.208;9.182;2024-01-11T00:14:31;51.92;;;19.73;;
12593;SDS011;6362;50.208;9.182;2024-01-11T00:16:56;48.08;;;21.80;;
12593;SDS011;6362;50.208;9.182;2024-01-11T00:19:22;48.33;;;21.17;;
12593;SDS011;6362;50.208;9.182;2024-01-11T00:21:47;50.45;;;21.85;;
12593;SDS011;6362;50.208;9.182;2024-01-11T00:24:13;46.65;;;21.13;;
12593;SDS011;6362;50.208;9.182;2024-01-11T00:26:38;46.45;;;21.65;;
12593;SDS011;6362;50.208;9.182;2024-01-11T00:29:04;48.10;;;20.73;;
12593;SDS011;6362;50.208;9.182;2024-01-11T00:31:29;46.75;;;20.08;;
12593;SDS011;6362;50.208;9.182;2024-01-11T00:33:55;49.70;;;22.02;;
12593;SDS011;6362;50.208;9.182;2024-01-11T00:36:20;46.35;;;20.98;;
12593;SDS011;6362;50.208;9.182;2024-01-11T00:38:46;43.88;;;19.55;;
12593;SDS011;6362;50.208;9.182;2024-01-11T00:41:11;49.38;;;22.42;;
12593;SDS011;6362;50.208;9.182;2024-01-11T00:43:37;52.58;;;22.10;;
12593;SDS011;6362;50.208;9.182;2024-01-11T00:46:02;48.78;;;20.77;;
12593;SDS011;6362;50.208;9.182;2024-01-11T00:48:28;51.20;;;21.90;;
12593;SDS011;6362;50.208;9.182;2024-01-11T00:50:53;52.88;;;20.05;;
12593;SDS011;6362;50.208;9.182;2024-01-11T00:53:19;47.92;;;20.95;;
12593;SDS011;6362;50.208;9.182;2024-01-11T00:55:45;52.50;;;21.67;;
12593;SDS011;6362;50.208;9.182;2024-01-11T00:58:10;56.85;;;21.27;;
12593;SDS011;6362;50.208;9.182;2024-01-11T01:00:35;49.22;;;22.60;;
12593;SDS011;6362;50.208;9.182;2024-01-11T01:03:01;52.28;;;21.88;;
12593;SDS011;6362;50.208;9.182;2024-01-11T01:05:26;57.10;;;22.60;;
12593;SDS011;6362;50.208;9.182;2024-01-11T01:07:52;52.70;;;21.90;;
12593;SDS011;6362;50.208;9.182;2024-01-11T01:10:18;50.10;;;21.25;;
12593;SDS011;6362;50.208;9.182;2024-01-11T01:12:43;54.22;;;22.52;;
12593;SDS011;6362;50.208;9.182;2024-01-11T01:15:09;51.30;;;21.73;;
12593;SDS011;6362;50.208;9.182;2024-01-11T01:17:34;52.17;;;22.20;;
12593;SDS011;6362;50.208;9.182;2024-01-11T01:20:00;52.33;;;22.20;;
12593;SDS011;6362;50.208;9.182;2024-01-11T01:22:25;58.58;;;23.25;;
12593;SDS011;6362;50.208;9.182;2024-01-11T01:24:51;52.58;;;21.00;;
12593;SDS011;6362;50.208;9.182;2024-01-11T01:27:16;55.33;;;22.23;;
12593;SDS011;6362;50.208;9.182;2024-01-11T01:29:42;51.72;;;21.85;;
12593;SDS011;6362;50.208;9.182;2024-01-11T01:32:07;48.78;;;22.17;;
12593;SDS011;6362;50.208;9.182;2024-01-11T01:34:33;56.15;;;24.73;;
12593;SDS011;6362;50.208;9.182;2024-01-11T01:36:58;48.38;;;22.38;;
12593;SDS011;6362;50.208;9.182;2024-01-11T01:39:24;53.17;;;22.77;;
12593;SDS011;6362;50.208;9.182;2024-01-11T01:41:49;53.80;;;22.40;;
12593;SDS011;6362;50.208;9.182;2024-01-11T01:44:15;55.67;;;23.98;;
12593;SDS011;6362;50.208;9.182;2024-01-11T01:46:40;53.08;;;21.65;;
12593;SDS011;6362;50.208;9.182;2024-01-11T01:49:06;51.10;;;24.38;;
12593;SDS011;6362;50.208;9.182;2024-01-11T01:51:32;53.63;;;22.05;;
12593;SDS011;6362;50.208;9.182;2024-01-11T01:53:58;53.10;;;23.48;;
12593;SDS011;6362;50.208;9.182;2024-01-11T01:56:25;52.67;;;22.73;;
12593;SDS011;6362;50.208;9.182;2024-01-11T01:58:52;61.08;;;25.70;;
12593;SDS011;6362;50.208;9.182;2024-01-11T02:01:19;53.80;;;23.55;;
12593;SDS011;6362;50.208;9.182;2024-01-11T02:03:46;58.30;;;22.35;;
12593;SDS011;6362;50.208;9.182;2024-01-11T02:06:16;53.00;;;22.65;;
12593;SDS011;6362;50.208;9.182;2024-01-11T02:08:42;60.78;;;23.80;;
12593;SDS011;6362;50.208;9.182;2024-01-11T02:11:08;53.75;;;23.15;;
12593;SDS011;6362;50.208;9.182;2024-01-11T02:13:36;61.35;;;25.38;;
12593;SDS011;6362;50.208;9.182;2024-01-11T02:16:02;51.78;;;23.42;;
12593;SDS011;6362;50.208;9.182;2024-01-11T02:18:27;58.20;;;24.17;;
12593;SDS011;6362;50.208;9.182;2024-01-11T02:20:53;56.20;;;23.02;;
12593;SDS011;6362;50.208;9.182;2024-01-11T02:23:19;55.50;;;23.13;;
12593;SDS011;6362;50.208;9.182;2024-01-11T02:25:49;62.92;;;25.52;;
12593;SDS011;6362;50.208;9.182;2024-01-11T02:28:14;53.78;;;23.45;;
12593;SDS011;6362;50.208;9.182;2024-01-11T02:30:40;46.22;;;22.55;;
12593;SDS011;6362;50.208;9.182;2024-01-11T02:33:05;57.10;;;23.52;;
12593;SDS011;6362;50.208;9.182;2024-01-11T02:35:32;61.47;;;23.67;;
12593;SDS011;6362;50.208;9.182;2024-01-11T02:37:59;51.95;;;23.38;;
12593;SDS011;6362;50.208;9.182;2024-01-11T02:40:25;56.47;;;23.70;;
12593;SDS011;6362;50.208;9.182;2024-01-11T02:42:51;54.92;;;24.20;;
12593;SDS011;6362;50.208;9.182;2024-01-11T02:45:16;57.67;;;23.52;;
12593;SDS011;6362;50.208;9.182;2024-01-11T02:47:43;60.00;;;25.88;;
12593;SDS011;6362;50.208;9.182;2024-01-11T02:50:09;58.63;;;25.67;;
12593;SDS011;6362;50.208;9.182;2024-01-11T02:52:36;60.03;;;24.40;;
12593;SDS011;6362;50.208;9.182;2024-01-11T02:55:02;54.78;;;23.30;;
12593;SDS011;6362;50.208;9.182;2024-01-11T02:57:28;51.58;;;21.95;;
12593;SDS011;6362;50.208;9.182;2024-01-11T02:59:54;59.78;;;26.58;;
12593;SDS011;6362;50.208;9.182;2024-01-11T03:02:19;51.85;;;24.23;;
12593;SDS011;6362;50.208;9.182;2024-01-11T03:04:45;60.25;;;25.15;;
12593;SDS011;6362;50.208;9.182;2024-01-11T03:07:10;59.80;;;26.88;;
12593;SDS011;6362;50.208;9.182;2024-01-11T03:09:36;60.85;;;25.38;;
12593;SDS011;6362;50.208;9.182;2024-01-11T03:12:01;57.00;;;25.55;;
12593;SDS011;6362;50.208;9.182;2024-01-11T03:14:27;67.55;;;26.88;;
12593;SDS011;6362;50.208;9.182;2024-01-11T03:16:52;62.70;;;26.55;;
12593;SDS011;6362;50.208;9.182;2024-01-11T03:19:18;61.10;;;27.08;;
12593;SDS011;6362;50.208;9.182;2024-01-11T03:21:43;57.58;;;26.52;;
12593;SDS011;6362;50.208;9.182;2024-01-11T03:24:11;60.83;;;25.05;;
12593;SDS011;6362;50.208;9.182;2024-01-11T03:26:37;55.17;;;24.85;;
12593;SDS011;6362;50.208;9.182;2024-01-11T03:29:03;58.85;;;24.50;;
12593;SDS011;6362;50.208;9.182;2024-01-11T03:31:28;55.97;;;24.42;;
12593;SDS011;6362;50.208;9.182;2024-01-11T03:33:54;68.30;;;27.70;;
12593;SDS011;6362;50.208;9.182;2024-01-11T03:36:22;66.78;;;27.10;;
12593;SDS011;6362;50.208;9.182;2024-01-11T03:38:48;63.88;;;25.98;;
12593;SDS011;6362;50.208;9.182;2024-01-11T03:41:14;59.33;;;24.30;;
12593;SDS011;6362;50.208;9.182;2024-01-11T03:43:39;61.30;;;26.05;;
12593;SDS011;6362;50.208;9.182;2024-01-11T03:46:05;66.80;;;27.45;;
12593;SDS011;6362;50.208;9.182;2024-01-11T03:48:30;61.58;;;23.73;;
12593;SDS011;6362;50.208;9.182;2024-01-11T03:50:56;65.90;;;25.92;;
12593;SDS011;6362;50.208;9.182;2024-01-11T03:53:22;68.90;;;26.45;;
12593;SDS011;6362;50.208;9.182;2024-01-11T03:55:47;67.60;;;29.13;;
12593;SDS011;6362;50.208;9.182;2024-01-11T03:58:13;55.80;;;23.95;;
12593;SDS011;6362;50.208;9.182;2024-01-11T04:00:39;66.65;;;26.67;;
12593;SDS011;6362;50.208;9.182;2024-01-11T04:03:05;61.25;;;25.77;;
12593;SDS011;6362;50.208;9.182;2024-01-11T04:05:31;61.53;;;26.92;;
12593;SDS011;6362;50.208;9.182;2024-01-11T04:07:57;68.03;;;25.40;;
12593;SDS011;6362;50.208;9.182;2024-01-11T04:10:22;58.92;;;24.20;;
12593;SDS011;6362;50.208;9.182;2024-01-11T04:12:48;59.20;;;24.20;;
12593;SDS011;6362;50.208;9.182;2024-01-11T04:15:13;76.50;;;27.63;;
12593;SDS011;6362;50.208;9.182;2024-01-11T04:17:39;67.45;;;27.45;;
12593;SDS011;6362;50.208;9.182;2024-01-11T04:20:06;66.53;;;28.38;;
12593;SDS011;6362;50.208;9.182;2024-01-11T04:22:33;67.30;;;27.17;;
12593;SDS011;6362;50.208;9.182;2024-01-11T04:24:58;62.17;;;26.35;;
12593;SDS011;6362;50.208;9.182;2024-01-11T04:27:23;63.90;;;25.50;;
12593;SDS011;6362;50.208;9.182;2024-01-11T04:29:49;61.42;;;25.83;;
12593;SDS011;6362;50.208;9.182;2024-01-11T04:32:14;59.65;;;25.00;;
12593;SDS011;6362;50.208;9.182;2024-01-11T04:34:40;59.80;;;25.15;;
12593;SDS011;6362;50.208;9.182;2024-01-11T04:37:06;63.90;;;25.55;;
12593;SDS011;6362;50.208;9.182;2024-01-11T04:39:32;66.35;;;26.67;;
12593;SDS011;6362;50.208;9.182;2024-01-11T04:41:58;59.28;;;24.27;;
12593;SDS011;6362;50.208;9.182;2024-01-11T04:44:25;66.10;;;26.70;;
12593;SDS011;6362;50.208;9.182;2024-01-11T04:46:51;60.47;;;26.02;;
12593;SDS011;6362;50.208;9.182;2024-01-11T04:49:16;53.35;;;23.48;;
12593;SDS011;6362;50.208;9.182;2024-01-11T04:51:42;63.38;;;25.23;;
12593;SDS011;6362;50.208;9.182;2024-01-11T04:54:07;68.60;;;24.58;;
12593;SDS011;6362;50.208;9.182;2024-01-11T04:56:33;62.47;;;26.65;;
12593;SDS011;6362;50.208;9.182;2024-01-11T04:58:59;60.28;;;24.65;;
12593;SDS011;6362;50.208;9.182;2024-01-11T05:01:24;67.97;;;26.08;;
12593;SDS011;6362;50.208;9.182;2024-01-11T05:03:50;65.18;;;26.10;;
12593;SDS011;6362;50.208;9.182;2024-01-11T05:06:18;58.67;;;24.80;;
12593;SDS011;6362;50.208;9.182;2024-01-11T05:08:45;59.97;;;25.52;;
12593;SDS011;6362;50.208;9.182;2024-01-11T05:11:18;54.47;;;26.15;;
12593;SDS011;6362;50.208;9.182;2024-01-11T05:13:44;67.13;;;25.27;;
12593;SDS011;6362;50.208;9.182;2024-01-11T05:16:19;69.40;;;26.70;;
12593;SDS011;6362;50.208;9.182;2024-01-11T05:18:45;66.97;;;28.42;;
12593;SDS011;6362;50.208;9.182;2024-01-11T05:21:11;64.68;;;28.40;;
12593;SDS011;6362;50.208;9.182;2024-01-11T05:23:37;69.80;;;27.83;;
12593;SDS011;6362;50.208;9.182;2024-01-11T05:26:02;67.90;;;26.02;;
12593;SDS011;6362;50.208;9.182;2024-01-11T05:28:28;58.88;;;23.70;;
12593;SDS011;6362;50.208;9.182;2024-01-11T05:30:54;67.53;;;28.60;;
12593;SDS011;6362;50.208;9.182;2024-01-11T05:33:20;75.25;;;26.23;;
12593;SDS011;6362;50.208;9.182;2024-01-11T05:35:45;65.07;;;26.83;;
12593;SDS011;6362;50.208;9.182;2024-01-11T05:38:11;74.03;;;28.30;;
12593;SDS011;6362;50.208;9.182;2024-01-11T05:40:36;70.78;;;28.40;;
12593;SDS011;6362;50.208;9.182;2024-01-11T05:43:02;67.82;;;26.42;;
12593;SDS011;6362;50.208;9.182;2024-01-11T05:45:27;66.75;;;25.67;;
12593;SDS011;6362;50.208;9.182;2024-01-11T05:47:53;63.88;;;28.17;;
12593;SDS011;6362;50.208;9.182;2024-01-11T05:50:18;62.95;;;27.83;;
12593;SDS011;6362;50.208;9.182;2024-01-11T05:52:44;63.45;;;26.45;;
12593;SDS011;6362;50.208;9.182;2024-01-11T05:55:09;67.35;;;27.65;;
12593;SDS011;6362;50.208;9.182;2024-01-11T05:57:35;67.65;;;27.08;;
12593;SDS011;6362;50.208;9.182;2024-01-11T06:00:00;65.93;;;26.23;;
12593;SDS011;6362;50.208;9.182;2024-01-11T06:02:26;67.25;;;27.55;;
12593;SDS011;6362;50.208;9.182;2024-01-11T06:04:52;68.43;;;28.38;;
12593;SDS011;6362;50.208;9.182;2024-01-11T06:07:17;66.88;;;26.95;;
12593;SDS011;6362;50.208;9.182;2024-01-11T06:09:43;65.13;;;27.85;;
12593;SDS011;6362;50.208;9.182;2024-01-11T06:12:08;70.53;;;26.65;;
12593;SDS011;6362;50.208;9.182;2024-01-11T06:14:34;68.55;;;29.67;;
12593;SDS011;6362;50.208;9.182;2024-01-11T06:16:59;63.83;;;26.25;;
12593;SDS011;6362;50.208;9.182;2024-01-11T06:19:25;77.25;;;27.27;;
12593;SDS011;6362;50.208;9.182;2024-01-11T06:21:50;70.65;;;28.30;;
12593;SDS011;6362;50.208;9.182;2024-01-11T06:24:16;71.70;;;28.20;;
12593;SDS011;6362;50.208;9.182;2024-01-11T06:26:41;66.30;;;27.33;;
12593;SDS011;6362;50.208;9.182;2024-01-11T06:29:07;70.10;;;28.17;;
12593;SDS011;6362;50.208;9.182;2024-01-11T06:31:32;72.32;;;27.30;;
12593;SDS011;6362;50.208;9.182;2024-01-11T06:33:57;67.00;;;29.27;;
12593;SDS011;6362;50.208;9.182;2024-01-11T06:36:23;67.85;;;26.90;;
12593;SDS011;6362;50.208;9.182;2024-01-11T06:38:48;76.40;;;29.45;;
12593;SDS011;6362;50.208;9.182;2024-01-11T06:41:14;69.45;;;29.00;;
12593;SDS011;6362;50.208;9.182;2024-01-11T06:43:39;61.75;;;26.98;;
12593;SDS011;6362;50.208;9.182;2024-01-11T06:46:05;68.65;;;26.85;;
12593;SDS011;6362;50.208;9.182;2024-01-11T06:48:31;67.63;;;28.10;;
12593;SDS011;6362;50.208;9.182;2024-01-11T06:50:57;67.15;;;29.67;;
12593;SDS011;6362;50.208;9.182;2024-01-11T06:53:23;65.90;;;27.75;;
12593;SDS011;6362;50.208;9.182;2024-01-11T06:55:48;65.30;;;28.63;;
12593;SDS011;6362;50.208;9.182;2024-01-11T06:58:15;69.43;;;26.63;;
12593;SDS011;6362;50.208;9.182;2024-01-11T07:00:41;70.10;;;29.73;;
12593;SDS011;6362;50.208;9.182;2024-01-11T07:03:10;62.33;;;25.83;;
12593;SDS011;6362;50.208;9.182;2024-01-11T07:05:36;76.50;;;31.92;;
12593;SDS011;6362;50.208;9.182;2024-01-11T07:08:03;78.55;;;33.70;;
12593;SDS011;6362;50.208;9.182;2024-01-11T07:10:29;84.70;;;35.83;;
12593;SDS011;6362;50.208;9.182;2024-01-11T07:12:54;82.25;;;35.05;;
12593;SDS011;6362;50.208;9.182;2024-01-11T07:15:20;81.68;;;34.00;;
12593;SDS011;6362;50.208;9.182;2024-01-11T07:17:46;77.53;;;30.50;;
12593;SDS011;6362;50.208;9.182;2024-01-11T07:20:11;67.93;;;29.10;;
12593;SDS011;6362;50.208;9.182;2024-01-11T07:22:38;65.20;;;29.20;;
12593;SDS011;6362;50.208;9.182;2024-01-11T07:25:03;63.42;;;29.50;;
12593;SDS011;6362;50.208;9.182;2024-01-11T07:27:29;68.32;;;29.88;;
12593;SDS011;6362;50.208;9.182;2024-01-11T07:29:54;62.47;;;28.27;;
12593;SDS011;6362;50.208;9.182;2024-01-11T07:32:20;62.00;;;28.52;;
12593;SDS011;6362;50.208;9.182;2024-01-11T07:34:46;73.63;;;28.90;;
12593;SDS011;6362;50.208;9.182;2024-01-11T07:37:11;66.90;;;28.08;;
12593;SDS011;6362;50.208;9.182;2024-01-11T07:39:37;65.85;;;27.25;;
12593;SDS011;6362;50.208;9.182;2024-01-11T07:42:02;65.35;;;28.00;;
12593;SDS011;6362;50.208;9.182;2024-01-11T07:44:28;66.45;;;27.48;;
12593;SDS011;6362;50.208;9.182;2024-01-11T07:46:53;66.85;;;27.75;;
12593;SDS011;6362;50.208;9.182;2024-01-11T07:49:19;67.57;;;28.13;;
12593;SDS011;6362;50.208;9.182;2024-01-11T07:51:45;65.25;;;29.00;;
12593;SDS011;6362;50.208;9.182;2024-01-11T07:54:11;63.42;;;26.95;;
12593;SDS011;6362;50.208;9.182;2024-01-11T07:56:37;67.55;;;29.23;;
12593;SDS011;6362;50.208;9.182;2024-01-11T07:59:02;70.25;;;29.05;;
12593;SDS011;6362;50.208;9.182;2024-01-11T08:01:28;72.75;;;29.45;;
12593;SDS011;6362;50.208;9.182;2024-01-11T08:03:53;77.05;;;30.83;;
12593;SDS011;6362;50.208;9.182;2024-01-11T08:06:19;65.40;;;27.02;;
12593;SDS011;6362;50.208;9.182;2024-01-11T08:08:44;68.18;;;28.65;;
12593;SDS011;6362;50.208;9.182;2024-01-11T08:11:16;71.35;;;28.73;;
12593;SDS011;6362;50.208;9.182;2024-01-11T08:13:42;74.60;;;30.23;;
12593;SDS011;6362;50.208;9.182;2024-01-11T08:16:07;75.55;;;29.00;;
12593;SDS011;6362;50.208;9.182;2024-01-11T08:18:34;65.68;;;27.85;;
12593;SDS011;6362;50.208;9.182;2024-01-11T08:21:00;64.22;;;27.38;;
12593;SDS011;6362;50.208;9.182;2024-01-11T08:23:26;74.47;;;30.08;;
12593;SDS011;6362;50.208;9.182;2024-01-11T08:25:51;68.30;;;28.58;;
12593;SDS011;6362;50.208;9.182;2024-01-11T08:28:18;63.47;;;26.90;;
12593;SDS011;6362;50.208;9.182;2024-01-11T08:30:43;70.88;;;28.60;;
12593;SDS011;6362;50.208;9.182;2024-01-11T08:33:09;69.03;;;28.33;;
12593;SDS011;6362;50.208;9.182;2024-01-11T08:35:34;68.45;;;28.52;;
12593;SDS011;6362;50.208;9.182;2024-01-11T08:38:00;70.10;;;28.65;;
12593;SDS011;6362;50.208;9.182;2024-01-11T08:40:26;66.18;;;26.92;;
12593;SDS011;6362;50.208;9.182;2024-01-11T08:42:52;66.57;;;28.92;;
12593;SDS011;6362;50.208;9.182;2024-01-11T08:45:18;68.40;;;27.48;;
12593;SDS011;6362;50.208;9.182;2024-01-11T08:47:44;68.50;;;27.95;;
12593;SDS011;6362;50.208;9.182;2024-01-11T08:50:14;67.40;;;28.45;;
12593;SDS011;6362;50.208;9.182;2024-01-11T08:52:41;68.55;;;28.42;;
12593;SDS011;6362;50.208;9.182;2024-01-11T08:55:07;65.90;;;28.25;;
12593;SDS011;6362;50.208;9.182;2024-01-11T08:57:33;63.83;;;26.98;;
12593;SDS011;6362;50.208;9.182;2024-01-11T09:00:01;63.53;;;27.60;;
12593;SDS011;6362;50.208;9.182;2024-01-11T09:02:27;66.75;;;29.88;;
12593;SDS011;6362;50.208;9.182;2024-01-11T09:04:52;65.55;;;29.98;;
12593;SDS011;6362;50.208;9.182;2024-01-11T09:07:18;72.72;;;28.83;;
12593;SDS011;6362;50.208;9.182;2024-01-11T09:09:43;66.63;;;27.13;;
12593;SDS011;6362;50.208;9.182;2024-01-11T09:12:09;67.78;;;30.50;;
12593;SDS011;6362;50.208;9.182;2024-01-11T09:14:34;68.53;;;29.90;;
12593;SDS011;6362;50.208;9.182;2024-01-11T09:17:00;64.35;;;25.50;;
12593;SDS011;6362;50.208;9.182;2024-01-11T09:19:26;66.70;;;29.33;;
12593;SDS011;6362;50.208;9.182;2024-01-11T09:21:51;71.85;;;29.27;;
12593;SDS011;6362;50.208;9.182;2024-01-11T09:24:17;64.22;;;29.52;;
12593;SDS011;6362;50.208;9.182;2024-01-11T09:26:42;73.00;;;29.92;;
12593;SDS011;6362;50.208;9.182;2024-01-11T09:29:08;65.88;;;26.65;;
12593;SDS011;6362;50.208;9.182;2024-01-11T09:31:33;68.88;;;27.80;;
12593;SDS011;6362;50.208;9.182;2024-01-11T09:33:59;73.72;;;28.92;;
12593;SDS011;6362;50.208;9.182;2024-01-11T09:36:24;66.43;;;29.05;;
12593;SDS011;6362;50.208;9.182;2024-01-11T09:38:50;71.57;;;29.75;;
12593;SDS011;6362;50.208;9.182;2024-01-11T09:41:15;64.18;;;28.42;;
12593;SDS011;6362;50.208;9.182;2024-01-11T09:43:41;65.30;;;27.27;;
12593;SDS011;6362;50.208;9.182;2024-01-11T09:46:08;66.85;;;29.23;;
12593;SDS011;6362;50.208;9.182;2024-01-11T09:48:36;70.78;;;29.58;;
12593;SDS011;6362;50.208;9.182;2024-01-11T09:51:04;72.80;;;29.48;;
12593;SDS011;6362;50.208;9.182;2024-01-11T09:53:35;71.88;;;30.25;;
12593;SDS011;6362;50.208;9.182;2024-01-11T09:56:01;61.25;;;27.48;;
12593;SDS011;6362;50.208;9.182;2024-01-11T09:58:32;68.95;;;29.08;;
12593;SDS011;6362;50.208;9.182;2024-01-11T10:01:01;66.38;;;28.40;;
12593;SDS011;6362;50.208;9.182;2024-01-11T10:03:27;60.88;;;25.98;;
12593;SDS011;6362;50.208;9.182;2024-01-11T10:05:54;63.55;;;27.02;;
12593;SDS011;6362;50.208;9.182;2024-01-11T10:08:23;57.50;;;25.90;;
12593;SDS011;6362;50.208;9.182;2024-01-11T10:10:49;56.95;;;25.58;;
12593;SDS011;6362;50.208;9.182;2024-01-11T10:13:18;60.80;;;25.17;;
12593;SDS011;6362;50.208;9.182;2024-01-11T10:15:43;59.67;;;26.60;;
12593;SDS011;6362;50.208;9.182;2024-01-11T10:18:09;52.17;;;26.45;;
12593;SDS011;6362;50.208;9.182;2024-01-11T10:20:35;52.85;;;26.58;;
12593;SDS011;6362;50.208;9.182;2024-01-11T10:23:02;55.17;;;26.05;;
12593;SDS011;6362;50.208;9.182;2024-01-11T10:25:28;60.72;;;29.05;;
12593;SDS011;6362;50.208;9.182;2024-01-11T10:27:54;63.53;;;28.45;;
12593;SDS011;6362;50.208;9.182;2024-01-11T10:30:20;64.82;;;28.63;;
12593;SDS011;6362;50.208;9.182;2024-01-11T10:32:47;66.43;;;31.95;;
12593;SDS011;6362;50.208;9.182;2024-01-11T10:35:13;65.68;;;34.00;;
12593;SDS011;6362;50.208;9.182;2024-01-11T10:37:39;58.30;;;29.02;;
12593;SDS011;6362;50.208;9.182;2024-01-11T10:40:07;56.92;;;26.85;;
12593;SDS011;6362;50.208;9.182;2024-01-11T10:42:44;53.25;;;25.30;;
12593;SDS011;6362;50.208;9.182;2024-01-11T10:45:17;53.95;;;27.77;;
12593;SDS011;6362;50.208;9.182;2024-01-11T10:47:53;60.05;;;30.42;;
12593;SDS011;6362;50.208;9.182;2024-01-11T10:50:22;59.28;;;29.05;;
12593;SDS011;6362;50.208;9.182;2024-01-11T10:56:05;72.32;;;30.13;;
12593;SDS011;6362;50.208;9.182;2024-01-11T10:58:34;64.45;;;30.23;;
12593;SDS011;6362;50.208;9.182;2024-01-11T11:01:02;66.40;;;31.90;;
12593;SDS011;6362;50.208;9.182;2024-01-11T11:03:30;55.88;;;30.30;;
12593;SDS011;6362;50.208;9.182;2024-01-11T11:05:56;63.65;;;30.85;;
12593;SDS011;6362;50.208;9.182;2024-01-11T11:08:24;61.75;;;29.83;;
12593;SDS011;6362;50.208;9.182;2024-01-11T11:10:56;61.40;;;31.30;;
12593;SDS011;6362;50.208;9.182;2024-01-11T11:13:22;57.58;;;30.00;;
12593;SDS011;6362;50.208;9.182;2024-01-11T11:15:49;60.97;;;31.75;;
12593;SDS011;6362;50.208;9.182;2024-01-11T11:18:15;58.90;;;27.95;;
12593;SDS011;6362;50.208;9.182;2024-01-11T11:20:41;52.55;;;29.63;;
12593;SDS011;6362;50.208;9.182;2024-01-11T11:23:07;62.72;;;31.20;;
12593;SDS011;6362;50.208;9.182;2024-01-11T11:25:40;61.10;;;30.45;;
12593;SDS011;6362;50.208;9.182;2024-01-11T11:28:06;59.60;;;30.65;;
12593;SDS011;6362;50.208;9.182;2024-01-11T11:30:32;57.00;;;29.98;;
12593;SDS011;6362;50.208;9.182;2024-01-11T11:33:10;59.45;;;30.42;;
12593;SDS011;6362;50.208;9.182;2024-01-11T11:35:40;53.50;;;28.02;;
12593;SDS011;6362;50.208;9.182;2024-01-11T11:38:06;58.90;;;30.88;;
12593;SDS011;6362;50.208;9.182;2024-01-11T11:40:38;59.50;;;32.40;;
12593;SDS011;6362;50.208;9.182;2024-01-11T11:43:05;64.20;;;32.65;;
12593;SDS011;6362;50.208;9.182;2024-01-11T11:45:31;63.22;;;31.42;;
12593;SDS011;6362;50.208;9.182;2024-01-11T11:47:57;57.28;;;31.55;;
12593;SDS011;6362;50.208;9.182;2024-01-11T11:50:23;61.40;;;32.13;;
12593;SDS011;6362;50.208;9.182;2024-01-11T11:52:56;58.20;;;29.17;;
12593;SDS011;6362;50.208;9.182;2024-01-11T11:55:22;56.03;;;31.02;;
12593;SDS011;6362;50.208;9.182;2024-01-11T11:57:52;57.13;;;31.58;;
12593;SDS011;6362;50.208;9.182;2024-01-11T12:00:18;58.60;;;31.73;;
12593;SDS011;6362;50.208;9.182;2024-01-11T12:02:48;55.88;;;31.58;;
12593;SDS011;6362;50.208;9.182;2024-01-11T12:05:16;60.63;;;31.92;;
12593;SDS011;6362;50.208;9.182;2024-01-11T12:07:43;54.58;;;29.92;;
12593;SDS011;6362;50.208;9.182;2024-01-11T12:10:09;59.25;;;31.52;;
12593;SDS011;6362;50.208;9.182;2024-01-11T12:12:35;54.15;;;31.85;;
12593;SDS011;6362;50.208;9.182;2024-01-11T12:15:03;61.10;;;31.23;;
12593;SDS011;6362;50.208;9.182;2024-01-11T12:17:29;54.33;;;31.90;;
12593;SDS011;6362;50.208;9.182;2024-01-11T12:19:55;52.63;;;30.20;;
12593;SDS011;6362;50.208;9.182;2024-01-11T12:22:20;52.83;;;29.85;;
12593;SDS011;6362;50.208;9.182;2024-01-11T12:24:46;57.92;;;30.02;;
12593;SDS011;6362;50.208;9.182;2024-01-11T12:27:12;54.13;;;30.88;;
12593;SDS011;6362;50.208;9.182;2024-01-11T12:29:38;56.13;;;31.40;;
12593;SDS011;6362;50.208;9.182;2024-01-11T12:32:04;55.58;;;31.60;;
12593;SDS011;6362;50.208;9.182;2024-01-11T12:34:30;54.08;;;31.80;;
12593;SDS011;6362;50.208;9.182;2024-01-11T12:36:57;53.33;;;29.17;;
12593;SDS011;6362;50.208;9.182;2024-01-11T12:39:25;53.88;;;32.00;;
12593;SDS011;6362;50.208;9.182;2024-01-11T12:41:52;58.40;;;32.03;;
12593;SDS011;6362;50.208;9.182;2024-01-11T12:44:19;53.30;;;30.67;;
12593;SDS011;6362;50.208;9.182;2024-01-11T12:46:47;55.53;;;30.10;;
12593;SDS011;6362;50.208;9.182;2024-01-11T12:49:13;56.42;;;30.98;;
12593;SDS011;6362;50.208;9.182;2024-01-11T12:51:39;51.70;;;30.65;;
12593;SDS011;6362;50.208;9.182;2024-01-11T12:54:05;53.97;;;29.67;;
12593;SDS011;6362;50.208;9.182;2024-01-11T12:56:40;51.20;;;29.20;;
12593;SDS011;6362;50.208;9.182;2024-01-11T12:59:07;53.05;;;29.77;;
12593;SDS011;6362;50.208;9.182;2024-01-11T13:01:35;51.95;;;30.95;;
12593;SDS011;6362;50.208;9.182;2024-01-11T13:04:01;55.58;;;30.63;;
12593;SDS011;6362;50.208;9.182;2024-01-11T13:06:28;47.10;;;27.85;;
12593;SDS011;6362;50.208;9.182;2024-01-11T13:08:55;49.00;;;29.10;;
12593;SDS011;6362;50.208;9.182;2024-01-11T13:11:20;44.60;;;25.25;;
12593;SDS011;6362;50.208;9.182;2024-01-11T13:13:46;49.35;;;28.40;;
12593;SDS011;6362;50.208;9.182;2024-01-11T13:16:12;51.92;;;29.95;;
12593;SDS011;6362;50.208;9.182;2024-01-11T13:18:39;52.10;;;30.45;;
12593;SDS011;6362;50.208;9.182;2024-01-11T13:21:05;46.65;;;27.63;;
12593;SDS011;6362;50.208;9.182;2024-01-11T13:23:34;48.38;;;29.73;;
12593;SDS011;6362;50.208;9.182;2024-01-11T13:26:00;50.35;;;29.17;;
12593;SDS011;6362;50.208;9.182;2024-01-11T13:28:25;47.88;;;28.13;;
12593;SDS011;6362;50.208;9.182;2024-01-11T13:30:52;48.75;;;27.70;;
12593;SDS011;6362;50.208;9.182;2024-01-11T13:33:17;47.70;;;27.88;;
12593;SDS011;6362;50.208;9.182;2024-01-11T13:35:44;46.60;;;28.08;;
12593;SDS011;6362;50.208;9.182;2024-01-11T13:38:10;44.08;;;27.55;;
12593;SDS011;6362;50.208;9.182;2024-01-11T13:40:36;46.95;;;27.33;;
12593;SDS011;6362;50.208;9.182;2024-01-11T13:43:03;45.03;;;26.67;;
12593;SDS011;6362;50.208;9.182;2024-01-11T13:45:28;47.42;;;28.13;;
12593;SDS011;6362;50.208;9.182;2024-01-11T13:47:57;46.97;;;28.25;;
12593;SDS011;6362;50.208;9.182;2024-01-11T13:50:22;45.83;;;26.38;;
12593;SDS011;6362;50.208;9.182;2024-01-11T13:52:51;43.88;;;28.33;;
12593;SDS011;6362;50.208;9.182;2024-01-11T13:55:17;45.42;;;27.38;;
12593;SDS011;6362;50.208;9.182;2024-01-11T13:57:43;47.38;;;28.67;;
12593;SDS011;6362;50.208;9.182;2024-01-11T14:00:09;43.13;;;26.67;;
12593;SDS011;6362;50.208;9.182;2024-01-11T14:02:38;45.42;;;27.92;;
12593;SDS011;6362;50.208;9.182;2024-01-11T14:05:05;46.03;;;27.02;;
12593;SDS011;6362;50.208;9.182;2024-01-11T14:07:38;48.72;;;26.98;;
12593;SDS011;6362;50.208;9.182;2024-01-11T14:10:05;47.72;;;28.40;;
12593;SDS011;6362;50.208;9.182;2024-01-11T14:12:32;48.03;;;28.25;;
12593;SDS011;6362;50.208;9.182;2024-01-11T14:14:58;45.33;;;28.20;;
12593;SDS011;6362;50.208;9.182;2024-01-11T14:17:25;44.38;;;27.55;;
12593;SDS011;6362;50.208;9.182;2024-01-11T14:19:51;43.42;;;27.17;;
12593;SDS011;6362;50.208;9.182;2024-01-11T14:22:16;46.00;;;27.20;;
12593;SDS011;6362;50.208;9.182;2024-01-11T14:24:45;46.03;;;28.08;;
12593;SDS011;6362;50.208;9.182;2024-01-11T14:27:10;48.45;;;28.35;;
12593;SDS011;6362;50.208;9.182;2024-01-11T14:29:36;39.75;;;24.27;;
12593;SDS011;6362;50.208;9.182;2024-01-11T14:32:02;50.38;;;28.05;;